Acadia Valley, Canada
Current Conditions -  °F | °C
As of 5:00 AM on Thursday 23 Oct 2014 (Local Time) from CYKY Reporting Station
Broken Clouds Broken Clouds  
Wind Chill:   Ceiling: 24000
Heat Index:   Visibility: 15mi
Dew Point:   Wind: 8mph
Humidity: 76%   Direction: 150°SSE
Pressure: 29.62"   Gusts: NA
Location:  51.15°N, 110.2°W
Report Text: CYKY 231100Z 15007KT 15SM SCT055 BKN240 06/02 A2962 RMK SC4CI3 SLP040
Loading
Personal Weather Stations






























Interactive Weather Map
Tropical Storm Tracking
New forecast layout! Learn more

10-Day Weather Forecast

Advertisements
Track Severe Weather on mobile